sensor_id;sensor_type;location;lat;lon;timestamp;P1;durP1;ratioP1;P2;durP2;ratioP2
51491;SDS011;37569;50.548;8.778;2023-09-12T00:00:12;15;;;8.8;;
51491;SDS011;37569;50.548;8.778;2023-09-12T00:05:13;16.8;;;9.4;;
51491;SDS011;37569;50.548;8.778;2023-09-12T00:10:14;13.9;;;9.3;;
51491;SDS011;37569;50.548;8.778;2023-09-12T00:15:15;16.9;;;9;;
51491;SDS011;37569;50.548;8.778;2023-09-12T00:20:16;17.8;;;8.6;;
51491;SDS011;37569;50.548;8.778;2023-09-12T00:25:17;13.9;;;8.8;;
51491;SDS011;37569;50.548;8.778;2023-09-12T00:30:17;12.1;;;8.6;;
51491;SDS011;37569;50.548;8.778;2023-09-12T00:35:18;16.9;;;8.8;;
51491;SDS011;37569;50.548;8.778;2023-09-12T00:40:19;11.3;;;8.2;;
51491;SDS011;37569;50.548;8.778;2023-09-12T00:45:20;15.5;;;8.8;;
51491;SDS011;37569;50.548;8.778;2023-09-12T00:50:21;13.4;;;8.2;;
51491;SDS011;37569;50.548;8.778;2023-09-12T00:55:22;13.8;;;8.3;;
51491;SDS011;37569;50.548;8.778;2023-09-12T01:00:23;14.6;;;8.3;;
51491;SDS011;37569;50.548;8.778;2023-09-12T01:05:23;15.9;;;8.3;;
51491;SDS011;37569;50.548;8.778;2023-09-12T01:10:24;14.8;;;8.5;;
51491;SDS011;37569;50.548;8.778;2023-09-12T01:15:25;13.7;;;8.2;;
51491;SDS011;37569;50.548;8.778;2023-09-12T01:20:27;12.9;;;8.1;;
51491;SDS011;37569;50.548;8.778;2023-09-12T01:25:39;17.3;;;9.1;;
51491;SDS011;37569;50.548;8.778;2023-09-12T01:30:28;16;;;8.8;;
51491;SDS011;37569;50.548;8.778;2023-09-12T01:35:28;14.4;;;8.9;;
51491;SDS011;37569;50.548;8.778;2023-09-12T01:40:31;15.3;;;8.6;;
51491;SDS011;37569;50.548;8.778;2023-09-12T01:45:30;14.8;;;8.6;;
51491;SDS011;37569;50.548;8.778;2023-09-12T01:50:31;14.3;;;8.7;;
51491;SDS011;37569;50.548;8.778;2023-09-12T01:55:32;15.7;;;9.2;;
51491;SDS011;37569;50.548;8.778;2023-09-12T02:00:33;14;;;9;;
51491;SDS011;37569;50.548;8.778;2023-09-12T02:05:33;16.8;;;8.7;;
51491;SDS011;37569;50.548;8.778;2023-09-12T02:10:34;14.1;;;9.1;;
51491;SDS011;37569;50.548;8.778;2023-09-12T02:15:35;13.8;;;9.1;;
51491;SDS011;37569;50.548;8.778;2023-09-12T02:20:38;17.8;;;9.1;;
51491;SDS011;37569;50.548;8.778;2023-09-12T02:25:36;15.3;;;9.5;;
51491;SDS011;37569;50.548;8.778;2023-09-12T02:30:37;16.4;;;9.9;;
51491;SDS011;37569;50.548;8.778;2023-09-12T02:35:38;14.8;;;9.1;;
51491;SDS011;37569;50.548;8.778;2023-09-12T02:40:39;15.3;;;9.3;;
51491;SDS011;37569;50.548;8.778;2023-09-12T02:45:40;14.3;;;9.5;;
51491;SDS011;37569;50.548;8.778;2023-09-12T02:50:40;16.7;;;9.8;;
51491;SDS011;37569;50.548;8.778;2023-09-12T02:55:41;15.4;;;9.8;;
51491;SDS011;37569;50.548;8.778;2023-09-12T03:00:42;15;;;9.4;;
51491;SDS011;37569;50.548;8.778;2023-09-12T03:05:43;13.2;;;8.8;;
51491;SDS011;37569;50.548;8.778;2023-09-12T03:10:44;18.5;;;9.3;;
51491;SDS011;37569;50.548;8.778;2023-09-12T03:15:44;16.6;;;10.2;;
51491;SDS011;37569;50.548;8.778;2023-09-12T03:20:45;18.2;;;10.1;;
51491;SDS011;37569;50.548;8.778;2023-09-12T03:25:46;21.6;;;11.1;;
51491;SDS011;37569;50.548;8.778;2023-09-12T03:30:47;18.7;;;10.4;;
51491;SDS011;37569;50.548;8.778;2023-09-12T03:35:48;17.4;;;11.2;;
51491;SDS011;37569;50.548;8.778;2023-09-12T03:40:48;16.3;;;11.7;;
51491;SDS011;37569;50.548;8.778;2023-09-12T03:45:49;17.7;;;11;;
51491;SDS011;37569;50.548;8.778;2023-09-12T03:50:50;16.9;;;11.6;;
51491;SDS011;37569;50.548;8.778;2023-09-12T03:55:51;13.4;;;10.9;;
51491;SDS011;37569;50.548;8.778;2023-09-12T04:00:51;17.3;;;11.2;;
51491;SDS011;37569;50.548;8.778;2023-09-12T04:05:52;17.1;;;10.7;;
51491;SDS011;37569;50.548;8.778;2023-09-12T04:10:53;19.8;;;10.7;;
51491;SDS011;37569;50.548;8.778;2023-09-12T04:15:54;18;;;10.8;;
51491;SDS011;37569;50.548;8.778;2023-09-12T04:20:54;20.5;;;11.2;;
51491;SDS011;37569;50.548;8.778;2023-09-12T04:25:55;16.3;;;10.8;;
51491;SDS011;37569;50.548;8.778;2023-09-12T04:31:03;19.7;;;10.9;;
51491;SDS011;37569;50.548;8.778;2023-09-12T04:35:57;17.9;;;10.6;;
51491;SDS011;37569;50.548;8.778;2023-09-12T04:40:59;17.7;;;10.5;;
51491;SDS011;37569;50.548;8.778;2023-09-12T04:45:58;18.7;;;10.8;;
51491;SDS011;37569;50.548;8.778;2023-09-12T04:50:59;16.8;;;11.1;;
51491;SDS011;37569;50.548;8.778;2023-09-12T04:56:00;22.4;;;13.3;;
51491;SDS011;37569;50.548;8.778;2023-09-12T05:01:01;21;;;12.8;;
51491;SDS011;37569;50.548;8.778;2023-09-12T05:06:01;19.1;;;12.7;;
51491;SDS011;37569;50.548;8.778;2023-09-12T05:11:02;19.4;;;12.9;;
51491;SDS011;37569;50.548;8.778;2023-09-12T05:16:03;21.3;;;13.5;;
51491;SDS011;37569;50.548;8.778;2023-09-12T05:21:04;22.8;;;13;;
51491;SDS011;37569;50.548;8.778;2023-09-12T05:26:05;18.3;;;11.7;;
51491;SDS011;37569;50.548;8.778;2023-09-12T05:31:05;19.9;;;11.6;;
51491;SDS011;37569;50.548;8.778;2023-09-12T05:36:06;15.5;;;10.9;;
51491;SDS011;37569;50.548;8.778;2023-09-12T05:41:07;15.5;;;10.9;;
51491;SDS011;37569;50.548;8.778;2023-09-12T05:46:08;15.1;;;10.2;;
51491;SDS011;37569;50.548;8.778;2023-09-12T05:51:09;19.6;;;10.3;;
51491;SDS011;37569;50.548;8.778;2023-09-12T05:56:10;16.2;;;9.8;;
51491;SDS011;37569;50.548;8.778;2023-09-12T06:01:10;18.5;;;10.3;;
51491;SDS011;37569;50.548;8.778;2023-09-12T06:06:11;15.5;;;9.9;;
51491;SDS011;37569;50.548;8.778;2023-09-12T06:11:12;16;;;10.2;;
51491;SDS011;37569;50.548;8.778;2023-09-12T06:16:13;18.3;;;10.2;;
51491;SDS011;37569;50.548;8.778;2023-09-12T06:21:14;18;;;10;;
51491;SDS011;37569;50.548;8.778;2023-09-12T06:26:15;13.6;;;9.8;;
51491;SDS011;37569;50.548;8.778;2023-09-12T06:31:16;16;;;9.7;;
51491;SDS011;37569;50.548;8.778;2023-09-12T06:36:16;15.7;;;9.1;;
51491;SDS011;37569;50.548;8.778;2023-09-12T06:41:18;16.9;;;9;;
51491;SDS011;37569;50.548;8.778;2023-09-12T06:46:18;15.2;;;8.7;;
51491;SDS011;37569;50.548;8.778;2023-09-12T06:51:20;14.2;;;8.7;;
51491;SDS011;37569;50.548;8.778;2023-09-12T06:56:20;16.2;;;9.1;;
51491;SDS011;37569;50.548;8.778;2023-09-12T07:01:21;14.9;;;8;;
51491;SDS011;37569;50.548;8.778;2023-09-12T07:06:22;16.5;;;8;;
51491;SDS011;37569;50.548;8.778;2023-09-12T07:11:23;17.5;;;7.9;;
51491;SDS011;37569;50.548;8.778;2023-09-12T07:16:24;14.4;;;7.6;;
51491;SDS011;37569;50.548;8.778;2023-09-12T07:21:25;15.5;;;8;;
51491;SDS011;37569;50.548;8.778;2023-09-12T07:26:26;13.3;;;8.1;;
51491;SDS011;37569;50.548;8.778;2023-09-12T07:31:27;15.2;;;8;;
51491;SDS011;37569;50.548;8.778;2023-09-12T07:36:28;17.3;;;8;;
51491;SDS011;37569;50.548;8.778;2023-09-12T07:41:29;15;;;8.3;;
51491;SDS011;37569;50.548;8.778;2023-09-12T07:46:30;13.8;;;8;;
51491;SDS011;37569;50.548;8.778;2023-09-12T07:51:31;15.3;;;8.4;;
51491;SDS011;37569;50.548;8.778;2023-09-12T07:56:32;12.8;;;7.9;;
51491;SDS011;37569;50.548;8.778;2023-09-12T08:01:33;17.3;;;8.6;;
51491;SDS011;37569;50.548;8.778;2023-09-12T08:06:34;17.6;;;8.5;;
51491;SDS011;37569;50.548;8.778;2023-09-12T08:11:35;14.9;;;8.5;;
51491;SDS011;37569;50.548;8.778;2023-09-12T08:16:36;14.6;;;8.1;;
51491;SDS011;37569;50.548;8.778;2023-09-12T08:21:37;18.1;;;8.2;;
51491;SDS011;37569;50.548;8.778;2023-09-12T08:26:38;16.2;;;8.5;;
51491;SDS011;37569;50.548;8.778;2023-09-12T08:31:39;14.2;;;8.3;;
51491;SDS011;37569;50.548;8.778;2023-09-12T08:36:40;14.3;;;9;;
51491;SDS011;37569;50.548;8.778;2023-09-12T08:41:41;15.3;;;8.4;;
51491;SDS011;37569;50.548;8.778;2023-09-12T08:46:42;16;;;8.2;;
51491;SDS011;37569;50.548;8.778;2023-09-12T08:51:44;12.7;;;7.3;;
51491;SDS011;37569;50.548;8.778;2023-09-12T08:56:45;12.7;;;6.8;;
51491;SDS011;37569;50.548;8.778;2023-09-12T09:01:46;12.6;;;6.5;;
51491;SDS011;37569;50.548;8.778;2023-09-12T09:06:47;11.6;;;6.6;;
51491;SDS011;37569;50.548;8.778;2023-09-12T09:11:49;15;;;6.4;;
51491;SDS011;37569;50.548;8.778;2023-09-12T09:16:50;14.8;;;6;;
51491;SDS011;37569;50.548;8.778;2023-09-12T09:21:51;14.2;;;6.4;;
51491;SDS011;37569;50.548;8.778;2023-09-12T09:26:52;12.5;;;6.3;;
51491;SDS011;37569;50.548;8.778;2023-09-12T09:31:54;14.9;;;6.2;;
51491;SDS011;37569;50.548;8.778;2023-09-12T09:36:56;14.8;;;6.4;;
51491;SDS011;37569;50.548;8.778;2023-09-12T09:41:56;10.6;;;6.5;;
51491;SDS011;37569;50.548;8.778;2023-09-12T09:46:58;11.7;;;6.6;;
51491;SDS011;37569;50.548;8.778;2023-09-12T09:51:59;11.2;;;6.6;;
51491;SDS011;37569;50.548;8.778;2023-09-12T09:57:00;12.5;;;6.6;;
51491;SDS011;37569;50.548;8.778;2023-09-12T10:02:01;14.4;;;6.9;;
51491;SDS011;37569;50.548;8.778;2023-09-12T10:07:03;14.2;;;6.9;;
51491;SDS011;37569;50.548;8.778;2023-09-12T10:12:04;12.7;;;6.9;;
51491;SDS011;37569;50.548;8.778;2023-09-12T10:17:05;11.7;;;6.8;;
51491;SDS011;37569;50.548;8.778;2023-09-12T10:22:07;15.9;;;6.9;;
51491;SDS011;37569;50.548;8.778;2023-09-12T10:27:08;15.4;;;7.1;;
51491;SDS011;37569;50.548;8.778;2023-09-12T10:32:09;12.3;;;6.8;;
51491;SDS011;37569;50.548;8.778;2023-09-12T10:37:10;14.3;;;6.5;;
51491;SDS011;37569;50.548;8.778;2023-09-12T10:42:12;11;;;6.4;;
51491;SDS011;37569;50.548;8.778;2023-09-12T10:47:13;11;;;5.7;;
51491;SDS011;37569;50.548;8.778;2023-09-12T10:52:23;12;;;5.8;;
51491;SDS011;37569;50.548;8.778;2023-09-12T10:57:15;10.8;;;6.3;;
51491;SDS011;37569;50.548;8.778;2023-09-12T11:02:26;13.5;;;5.7;;
51491;SDS011;37569;50.548;8.778;2023-09-12T11:07:43;13.7;;;6.1;;
51491;SDS011;37569;50.548;8.778;2023-09-12T11:12:34;12.6;;;5.9;;
51491;SDS011;37569;50.548;8.778;2023-09-12T11:17:21;14.1;;;5.7;;
51491;SDS011;37569;50.548;8.778;2023-09-12T11:22:23;11.3;;;6.1;;
51491;SDS011;37569;50.548;8.778;2023-09-12T11:27:24;11.6;;;5.7;;
51491;SDS011;37569;50.548;8.778;2023-09-12T11:32:26;11.3;;;5.9;;
51491;SDS011;37569;50.548;8.778;2023-09-12T11:37:26;10.7;;;5.5;;
51491;SDS011;37569;50.548;8.778;2023-09-12T11:42:28;11.4;;;6.1;;
51491;SDS011;37569;50.548;8.778;2023-09-12T11:47:29;12.8;;;6.3;;
51491;SDS011;37569;50.548;8.778;2023-09-12T11:52:30;14.8;;;6.4;;
51491;SDS011;37569;50.548;8.778;2023-09-12T11:57:32;11.4;;;6.1;;
51491;SDS011;37569;50.548;8.778;2023-09-12T12:02:33;11.6;;;6.1;;
51491;SDS011;37569;50.548;8.778;2023-09-12T12:07:34;13.8;;;6.1;;
51491;SDS011;37569;50.548;8.778;2023-09-12T12:12:36;13.7;;;6;;
51491;SDS011;37569;50.548;8.778;2023-09-12T12:17:37;12.6;;;5.7;;
51491;SDS011;37569;50.548;8.778;2023-09-12T12:22:39;12;;;6.1;;
51491;SDS011;37569;50.548;8.778;2023-09-12T12:27:41;12.3;;;5.9;;
51491;SDS011;37569;50.548;8.778;2023-09-12T12:32:41;11.7;;;5.8;;
51491;SDS011;37569;50.548;8.778;2023-09-12T12:37:43;9.9;;;5.8;;
51491;SDS011;37569;50.548;8.778;2023-09-12T12:42:44;10.9;;;5.7;;
51491;SDS011;37569;50.548;8.778;2023-09-12T12:47:46;15.4;;;5.7;;
51491;SDS011;37569;50.548;8.778;2023-09-12T12:52:47;13.3;;;6.2;;
51491;SDS011;37569;50.548;8.778;2023-09-12T12:57:48;14.5;;;5.9;;
51491;SDS011;37569;50.548;8.778;2023-09-12T13:02:50;12.4;;;6.2;;
51491;SDS011;37569;50.548;8.778;2023-09-12T13:07:51;14.9;;;5.8;;
51491;SDS011;37569;50.548;8.778;2023-09-12T13:12:52;13.5;;;5.6;;
51491;SDS011;37569;50.548;8.778;2023-09-12T13:17:54;11.2;;;5.5;;
51491;SDS011;37569;50.548;8.778;2023-09-12T13:22:55;9.5;;;5.9;;
51491;SDS011;37569;50.548;8.778;2023-09-12T13:27:56;10.8;;;5.6;;
51491;SDS011;37569;50.548;8.778;2023-09-12T13:32:58;11.4;;;5.8;;
51491;SDS011;37569;50.548;8.778;2023-09-12T13:37:59;10;;;5.8;;
51491;SDS011;37569;50.548;8.778;2023-09-12T13:43:00;12.2;;;5.9;;
51491;SDS011;37569;50.548;8.778;2023-09-12T13:48:02;12.6;;;6;;
51491;SDS011;37569;50.548;8.778;2023-09-12T13:53:03;12.9;;;5.9;;
51491;SDS011;37569;50.548;8.778;2023-09-12T13:58:04;11.7;;;5.8;;
51491;SDS011;37569;50.548;8.778;2023-09-12T14:03:06;12.9;;;5.8;;
51491;SDS011;37569;50.548;8.778;2023-09-12T14:08:07;11.2;;;5.9;;
51491;SDS011;37569;50.548;8.778;2023-09-12T14:13:08;12.8;;;5.8;;
51491;SDS011;37569;50.548;8.778;2023-09-12T14:18:10;13.1;;;5.6;;
51491;SDS011;37569;50.548;8.778;2023-09-12T14:23:11;11.7;;;8;;
51491;SDS011;37569;50.548;8.778;2023-09-12T14:28:13;15.2;;;6;;
51491;SDS011;37569;50.548;8.778;2023-09-12T14:33:14;12.8;;;6;;
51491;SDS011;37569;50.548;8.778;2023-09-12T14:38:15;13.2;;;6.2;;
51491;SDS011;37569;50.548;8.778;2023-09-12T14:43:17;11.4;;;5.7;;
51491;SDS011;37569;50.548;8.778;2023-09-12T14:48:18;11.1;;;6;;
51491;SDS011;37569;50.548;8.778;2023-09-12T14:53:19;14.3;;;6.1;;
51491;SDS011;37569;50.548;8.778;2023-09-12T14:58:21;11.4;;;5.9;;
51491;SDS011;37569;50.548;8.778;2023-09-12T15:03:22;11.4;;;6.3;;
51491;SDS011;37569;50.548;8.778;2023-09-12T15:08:23;12.3;;;6;;
51491;SDS011;37569;50.548;8.778;2023-09-12T15:13:25;11.7;;;6.2;;
51491;SDS011;37569;50.548;8.778;2023-09-12T15:18:26;13.7;;;6;;
51491;SDS011;37569;50.548;8.778;2023-09-12T15:23:27;11.4;;;5.5;;
51491;SDS011;37569;50.548;8.778;2023-09-12T15:28:29;10.6;;;5.6;;
51491;SDS011;37569;50.548;8.778;2023-09-12T15:33:30;12.5;;;6.3;;
51491;SDS011;37569;50.548;8.778;2023-09-12T15:38:31;10.7;;;5.7;;
51491;SDS011;37569;50.548;8.778;2023-09-12T15:43:33;12.7;;;6.2;;
51491;SDS011;37569;50.548;8.778;2023-09-12T15:48:34;14.7;;;6.2;;
51491;SDS011;37569;50.548;8.778;2023-09-12T15:53:35;13.5;;;6;;
51491;SDS011;37569;50.548;8.778;2023-09-12T15:58:37;11.6;;;6;;
51491;SDS011;37569;50.548;8.778;2023-09-12T16:03:38;8.8;;;6.1;;
51491;SDS011;37569;50.548;8.778;2023-09-12T16:08:39;12.8;;;6.2;;
51491;SDS011;37569;50.548;8.778;2023-09-12T16:13:40;14.9;;;6.1;;
51491;SDS011;37569;50.548;8.778;2023-09-12T16:18:42;12.1;;;6.5;;
51491;SDS011;37569;50.548;8.778;2023-09-12T16:23:43;10.9;;;6.4;;
51491;SDS011;37569;50.548;8.778;2023-09-12T16:28:44;13;;;6.4;;
51491;SDS011;37569;50.548;8.778;2023-09-12T16:33:46;11.7;;;6.8;;
51491;SDS011;37569;50.548;8.778;2023-09-12T16:38:47;12.8;;;7;;
51491;SDS011;37569;50.548;8.778;2023-09-12T16:43:48;14.1;;;7.1;;
51491;SDS011;37569;50.548;8.778;2023-09-12T16:48:49;12.4;;;7.1;;
51491;SDS011;37569;50.548;8.778;2023-09-12T16:53:51;13.5;;;7.2;;
51491;SDS011;37569;50.548;8.778;2023-09-12T16:58:52;15.9;;;7.7;;
51491;SDS011;37569;50.548;8.778;2023-09-12T17:03:57;15.1;;;7.6;;
51491;SDS011;37569;50.548;8.778;2023-09-12T17:08:55;15.7;;;7.2;;
51491;SDS011;37569;50.548;8.778;2023-09-12T17:13:56;14.6;;;7.5;;
51491;SDS011;37569;50.548;8.778;2023-09-12T17:18:57;16.5;;;7.7;;
51491;SDS011;37569;50.548;8.778;2023-09-12T17:23:58;14.4;;;7.7;;
51491;SDS011;37569;50.548;8.778;2023-09-12T17:29:00;13.6;;;7.9;;
51491;SDS011;37569;50.548;8.778;2023-09-12T17:34:01;14.2;;;8.3;;
51491;SDS011;37569;50.548;8.778;2023-09-12T17:39:02;15.9;;;8.2;;
51491;SDS011;37569;50.548;8.778;2023-09-12T17:44:03;11.4;;;8.5;;
51491;SDS011;37569;50.548;8.778;2023-09-12T17:49:04;13;;;8.2;;
51491;SDS011;37569;50.548;8.778;2023-09-12T17:54:06;15;;;8.5;;
51491;SDS011;37569;50.548;8.778;2023-09-12T17:59:07;15.6;;;8.5;;
51491;SDS011;37569;50.548;8.778;2023-09-12T18:04:08;16.8;;;9;;
51491;SDS011;37569;50.548;8.778;2023-09-12T18:09:09;13.7;;;9;;
51491;SDS011;37569;50.548;8.778;2023-09-12T18:14:10;14.9;;;8.8;;
51491;SDS011;37569;50.548;8.778;2023-09-12T18:19:11;14.5;;;8.8;;
51491;SDS011;37569;50.548;8.778;2023-09-12T18:24:13;15;;;9.1;;
51491;SDS011;37569;50.548;8.778;2023-09-12T18:29:14;13.8;;;9.4;;
51491;SDS011;37569;50.548;8.778;2023-09-12T18:34:15;13.5;;;8.9;;
51491;SDS011;37569;50.548;8.778;2023-09-12T18:39:16;16.2;;;9.3;;
51491;SDS011;37569;50.548;8.778;2023-09-12T18:44:17;14.5;;;9.2;;
51491;SDS011;37569;50.548;8.778;2023-09-12T18:49:18;13.9;;;9.3;;
51491;SDS011;37569;50.548;8.778;2023-09-12T18:54:19;16.3;;;9.6;;
51491;SDS011;37569;50.548;8.778;2023-09-12T18:59:20;12.2;;;9.3;;
51491;SDS011;37569;50.548;8.778;2023-09-12T19:04:22;14.8;;;9.3;;
51491;SDS011;37569;50.548;8.778;2023-09-12T19:09:23;14.7;;;9.9;;
51491;SDS011;37569;50.548;8.778;2023-09-12T19:14:24;14.9;;;9.6;;
51491;SDS011;37569;50.548;8.778;2023-09-12T19:19:25;14.9;;;9.9;;
51491;SDS011;37569;50.548;8.778;2023-09-12T19:24:26;14;;;9.8;;
51491;SDS011;37569;50.548;8.778;2023-09-12T19:29:27;15.8;;;9.7;;
51491;SDS011;37569;50.548;8.778;2023-09-12T19:34:28;15.8;;;10.1;;
51491;SDS011;37569;50.548;8.778;2023-09-12T19:39:29;17.6;;;11;;
51491;SDS011;37569;50.548;8.778;2023-09-12T19:44:30;16;;;10.3;;
51491;SDS011;37569;50.548;8.778;2023-09-12T19:49:31;18.1;;;10.8;;
51491;SDS011;37569;50.548;8.778;2023-09-12T19:54:33;17.9;;;11.1;;
51491;SDS011;37569;50.548;8.778;2023-09-12T19:59:33;17.7;;;11.3;;
51491;SDS011;37569;50.548;8.778;2023-09-12T20:04:35;8.2;;;5.3;;
51491;SDS011;37569;50.548;8.778;2023-09-12T20:09:36;8.4;;;4.1;;
51491;SDS011;37569;50.548;8.778;2023-09-12T20:14:37;8.8;;;4;;
51491;SDS011;37569;50.548;8.778;2023-09-12T20:19:38;8.8;;;3.9;;
51491;SDS011;37569;50.548;8.778;2023-09-12T20:24:38;7.8;;;3.4;;
51491;SDS011;37569;50.548;8.778;2023-09-12T20:29:39;5.9;;;3.3;;
51491;SDS011;37569;50.548;8.778;2023-09-12T20:34:40;6;;;3.1;;
51491;SDS011;37569;50.548;8.778;2023-09-12T20:39:41;6.8;;;3.1;;
51491;SDS011;37569;50.548;8.778;2023-09-12T20:44:42;5;;;3.5;;
51491;SDS011;37569;50.548;8.778;2023-09-12T20:49:43;7.6;;;3.7;;
51491;SDS011;37569;50.548;8.778;2023-09-12T20:54:44;5.8;;;4.4;;
51491;SDS011;37569;50.548;8.778;2023-09-12T20:59:45;6.6;;;3.9;;
51491;SDS011;37569;50.548;8.778;2023-09-12T21:04:46;6;;;4.2;;
51491;SDS011;37569;50.548;8.778;2023-09-12T21:09:46;5.9;;;3.6;;
51491;SDS011;37569;50.548;8.778;2023-09-12T21:14:47;5.6;;;3.3;;
51491;SDS011;37569;50.548;8.778;2023-09-12T21:19:48;5.2;;;3.4;;
51491;SDS011;37569;50.548;8.778;2023-09-12T21:24:49;4.2;;;3.4;;
51491;SDS011;37569;50.548;8.778;2023-09-12T21:29:50;5.2;;;3.6;;
51491;SDS011;37569;50.548;8.778;2023-09-12T21:35:00;6.4;;;4.1;;
51491;SDS011;37569;50.548;8.778;2023-09-12T21:39:52;7.1;;;4;;
51491;SDS011;37569;50.548;8.778;2023-09-12T21:44:52;6;;;3.4;;
51491;SDS011;37569;50.548;8.778;2023-09-12T21:49:53;4.5;;;3.4;;
51491;SDS011;37569;50.548;8.778;2023-09-12T21:54:54;5;;;3.6;;
51491;SDS011;37569;50.548;8.778;2023-09-12T21:59:55;5.3;;;3.4;;
51491;SDS011;37569;50.548;8.778;2023-09-12T22:04:56;4.6;;;3.6;;
51491;SDS011;37569;50.548;8.778;2023-09-12T22:09:57;4.7;;;3.6;;
51491;SDS011;37569;50.548;8.778;2023-09-12T22:14:58;5.2;;;3.8;;
51491;SDS011;37569;50.548;8.778;2023-09-12T22:19:58;4.4;;;3.5;;
51491;SDS011;37569;50.548;8.778;2023-09-12T22:24:59;4.9;;;3.3;;
51491;SDS011;37569;50.548;8.778;2023-09-12T22:30:00;6;;;3.4;;
51491;SDS011;37569;50.548;8.778;2023-09-12T22:35:01;5.2;;;3;;
51491;SDS011;37569;50.548;8.778;2023-09-12T22:40:02;4.6;;;3.3;;
51491;SDS011;37569;50.548;8.778;2023-09-12T22:45:03;4.4;;;3.6;;
51491;SDS011;37569;50.548;8.778;2023-09-12T22:50:03;5.5;;;4.1;;
51491;SDS011;37569;50.548;8.778;2023-09-12T22:55:04;5.7;;;4.4;;
51491;SDS011;37569;50.548;8.778;2023-09-12T23:00:05;7.3;;;4.6;;
51491;SDS011;37569;50.548;8.778;2023-09-12T23:05:06;6;;;4.8;;
51491;SDS011;37569;50.548;8.778;2023-09-12T23:10:07;5.9;;;4.6;;
51491;SDS011;37569;50.548;8.778;2023-09-12T23:15:08;6.9;;;4.8;;
51491;SDS011;37569;50.548;8.778;2023-09-12T23:20:08;6.1;;;4;;
51491;SDS011;37569;50.548;8.778;2023-09-12T23:25:09;7;;;4.6;;
51491;SDS011;37569;50.548;8.778;2023-09-12T23:30:10;5.2;;;4.6;;
51491;SDS011;37569;50.548;8.778;2023-09-12T23:35:11;5.8;;;4.8;;
51491;SDS011;37569;50.548;8.778;2023-09-12T23:40:11;5.3;;;3.9;;
51491;SDS011;37569;50.548;8.778;2023-09-12T23:45:12;5.3;;;4.5;;
51491;SDS011;37569;50.548;8.778;2023-09-12T23:50:13;4.9;;;4.4;;
51491;SDS011;37569;50.548;8.778;2023-09-12T23:55:14;5.8;;;4.3;;
